Time;durP1;ratioP1;P1;durP2;ratioP2;P2;SDS_P1;SDS_P2;PMS_P1;PMS_P2;Temp;Humidity;BMP_temperature;BMP_pressure;BME280_temperature;BME280_humidity;BME280_pressure;Samples;Min_cycle;Max_cycle;Signal;HPM_P1;HPM_P2
2021/04/18 00:00:52;;;;;;;;;;;231.20;1945.60;;;;;;5014200;28;20003;-74
2021/04/18 00:03:18;;;;;;;;;;;231.20;1945.60;;;;;;5013917;28;20323;-70
2021/04/18 00:05:43;;;;;;;;;;;231.00;1996.80;;;;;;5012529;28;20248;-73
2021/04/18 00:08:10;;;;;;;;;;;230.80;2048.00;;;;;;5013731;28;19912;-73
2021/04/18 00:10:37;;;;;;;;;;;205.70;2099.20;;;;;;5013606;28;19912;-72
2021/04/18 00:13:03;;;;;;;;;;;205.50;2150.40;;;;;;5013543;28;20016;-73
2021/04/18 00:15:29;;;;;;;;;;;205.70;2124.80;;;;;;5012522;28;19913;-72
2021/04/18 00:17:55;;;;;;;;;;;205.70;2099.20;;;;;;5013491;28;19905;-72
2021/04/18 00:20:21;;;;;;;;;;;205.60;2150.40;;;;;;5013488;28;19975;-70
2021/04/18 00:22:47;;;;;;;;;;;205.60;2150.40;;;;;;5013488;28;19920;-72
2021/04/18 00:25:13;;;;;;;;;;;;;;;;;;5013316;28;20356;-73
2021/04/18 00:27:39;;;;;;;;;;;;;;;;;;5013378;28;19911;-73
2021/04/18 00:30:08;;;;;;;;;;;205.50;2124.80;;;;;;5013266;28;19959;-72
2021/04/18 00:32:34;;;;;;;;;;;205.70;2124.80;;;;;;5013207;28;19999;-73
2021/04/18 00:34:59;;;;;;;;;;;205.50;2150.40;;;;;;5013281;28;19941;-73
2021/04/18 00:37:25;;;;;;;;;;;205.60;2124.80;;;;;;5011913;28;19956;-75
2021/04/18 00:39:50;;;;;;;;;;;205.50;2124.80;;;;;;5013259;28;19912;-70
2021/04/18 00:42:16;;;;;;;;;;;205.60;2124.80;;;;;;5013033;28;19967;-72
2021/04/18 00:44:42;;;;;;;;;;;205.70;2124.80;;;;;;5013225;28;19909;-70
2021/04/18 00:47:08;;;;;;;;;;;230.40;2124.80;;;;;;5011822;28;19912;-72
2021/04/18 00:49:33;;;;;;;;;;;230.60;2099.20;;;;;;4999350;28;19905;-70
2021/04/18 00:51:59;;;;;;;;;;;205.70;2150.40;;;;;;5012877;28;19921;-74
2021/04/18 00:54:24;;;;;;;;;;;205.70;2124.80;;;;;;5013035;28;19987;-70
2021/04/18 00:56:50;;;;;;;;;;;;;;;;;;5013116;28;19905;-70
2021/04/18 00:59:16;;;;;;;;;;;205.50;2201.60;;;;;;5013117;28;19905;-69
2021/04/18 01:01:41;;;;;;;;;;;205.50;2252.80;;;;;;5012958;28;19905;-74
2021/04/18 01:04:07;;;;;;;;;;;205.40;2227.20;;;;;;5013138;28;19914;-72
2021/04/18 01:06:32;;;;;;;;;;;205.40;2227.20;;;;;;5012920;28;20315;-74
2021/04/18 01:08:59;;;;;;;;;;;205.60;2201.60;;;;;;5013131;28;19912;-71
2021/04/18 01:11:24;;;;;;;;;;;205.60;2150.40;;;;;;5012749;28;19905;-71
2021/04/18 01:13:50;;;;;;;;;;;230.40;2150.40;;;;;;5012980;28;20370;-70
2021/04/18 01:16:16;;;;;;;;;;;230.70;2124.80;;;;;;5013053;28;19906;-73
2021/04/18 01:18:42;;;;;;;;;;;230.80;2073.60;;;;;;5012872;28;19905;-73
2021/04/18 01:21:11;;;;;;;;;;;230.70;2048.00;;;;;;5011335;28;19921;-73
2021/04/18 01:23:37;;;;;;;;;;;230.50;2073.60;;;;;;5013535;28;20360;-73
2021/04/18 01:26:03;;;;;;;;;;;230.50;2099.20;;;;;;5013644;28;19906;-73
2021/04/18 01:28:29;;;;;;;;;;;230.80;2073.60;;;;;;5016618;28;20051;-74
2021/04/18 01:30:54;;;;;;;;;;;230.90;2048.00;;;;;;5016859;28;19992;-74
2021/04/18 01:33:20;;;;;;;;;;;231.00;1996.80;;;;;;5015084;28;19913;-72
2021/04/18 01:35:47;;;;;;;;;;;231.00;1996.80;;;;;;5016543;28;19906;-68
2021/04/18 01:38:13;;;;;;;;;;;231.00;1996.80;;;;;;5016711;28;19909;-69
2021/04/18 01:40:39;;;;;;;;;;;230.80;1996.80;;;;;;5016630;28;19905;-69
2021/04/18 01:43:04;;;;;;;;;;;230.90;2022.40;;;;;;5016449;28;19967;-69
2021/04/18 01:45:30;;;;;;;;;;;230.80;2022.40;;;;;;5016472;28;19906;-69
2021/04/18 01:47:55;;;;;;;;;;;230.70;2048.00;;;;;;5014718;28;20356;-68
2021/04/18 01:50:21;;;;;;;;;;;230.50;2073.60;;;;;;5016432;28;19913;-72
2021/04/18 01:52:48;;;;;;;;;;;230.40;2073.60;;;;;;5015972;28;19976;-68
2021/04/18 01:55:14;;;;;;;;;;;205.70;2150.40;;;;;;5016346;28;19956;-73
2021/04/18 01:57:40;;;;;;;;;;;205.70;2099.20;;;;;;5016076;28;19905;-71
2021/04/18 02:00:06;;;;;;;;;;;230.50;2073.60;;;;;;5016556;28;19912;-70
2021/04/18 02:02:32;;;;;;;;;;;205.60;2099.20;;;;;;5016142;28;19906;-74
2021/04/18 02:04:57;;;;;;;;;;;205.40;2124.80;;;;;;5016488;28;20237;-70
2021/04/18 02:07:23;;;;;;;;;;;205.50;2150.40;;;;;;5016090;28;19932;-69
2021/04/18 02:09:48;;;;;;;;;;;205.20;2176.00;;;;;;5016108;28;19909;-73
2021/04/18 02:12:14;;;;;;;;;;;205.10;2176.00;;;;;;5016094;28;19913;-73
2021/04/18 02:14:40;;;;;;;;;;;205.00;2176.00;;;;;;5015985;28;20407;-69
2021/04/18 02:17:05;;;;;;;;;;;205.40;2099.20;;;;;;5016219;28;20004;-69
2021/04/18 02:19:31;;;;;;;;;;;205.20;2099.20;;;;;;5016064;28;20359;-68
2021/04/18 02:21:57;;;;;;;;;;;205.20;2150.40;;;;;;5015469;28;19917;-73
2021/04/18 02:24:23;;;;;;;;;;;205.40;2099.20;;;;;;5015850;28;19913;-72
2021/04/18 02:26:49;;;;;;;;;;;205.20;2099.20;;;;;;5015721;28;19913;-72
2021/04/18 02:29:14;;;;;;;;;;;205.00;2150.40;;;;;;5015598;28;19916;-73
2021/04/18 02:31:40;;;;;;;;;;;204.90;2176.00;;;;;;5015608;28;20406;-70
2021/04/18 02:34:06;;;;;;;;;;;205.20;2150.40;;;;;;5015716;28;20371;-72
2021/04/18 02:36:31;;;;;;;;;;;204.90;2227.20;;;;;;5015596;28;19909;-72
2021/04/18 02:38:57;;;;;;;;;;;205.00;2176.00;;;;;;5014428;28;19906;-73
2021/04/18 02:41:23;;;;;;;;;;;204.80;2227.20;;;;;;5015606;28;19916;-73
2021/04/18 02:43:48;;;;;;;;;;;205.30;2176.00;;;;;;5015252;28;20294;-72
2021/04/18 02:46:14;;;;;;;;;;;205.40;2099.20;;;;;;5015485;28;19909;-72
2021/04/18 02:48:40;;;;;;;;;;;205.30;2176.00;;;;;;5005272;28;19917;-71
2021/04/18 02:51:05;;;;;;;;;;;205.30;2124.80;;;;;;5011043;28;19921;-71
2021/04/18 02:53:31;;;;;;;;;;;205.00;2176.00;;;;;;5015024;28;20380;-69
2021/04/18 02:55:56;;;;;;;;;;;205.00;2176.00;;;;;;5015358;28;19912;-70
2021/04/18 02:58:22;;;;;;;;;;;205.00;2150.40;;;;;;5015152;28;20328;-71
2021/04/18 03:00:47;;;;;;;;;;;179.90;2227.20;;;;;;5015124;28;19929;-72
2021/04/18 03:03:13;;;;;;;;;;;179.70;2252.80;;;;;;5013252;28;19972;-71
2021/04/18 03:05:38;;;;;;;;;;;179.60;2252.80;;;;;;5015075;28;19928;-71
2021/04/18 03:08:04;;;;;;;;;;;180.00;2201.60;;;;;;5014969;28;19905;-73
2021/04/18 03:10:30;;;;;;;;;;;204.90;2201.60;;;;;;5015060;28;20007;-73
2021/04/18 03:12:56;;;;;;;;;;;205.10;2124.80;;;;;;5014830;28;19920;-76
2021/04/18 03:15:22;;;;;;;;;;;180.10;2176.00;;;;;;5013381;28;19912;-71
2021/04/18 03:17:48;;;;;;;;;;;204.80;2150.40;;;;;;5014939;28;19995;-77
2021/04/18 03:20:14;;;;;;;;;;;179.80;2252.80;;;;;;5014692;28;20363;-73
2021/04/18 03:22:39;;;;;;;;;;;180.00;2176.00;;;;;;5014595;28;19913;-72
2021/04/18 03:25:05;;;;;;;;;;;204.80;2150.40;;;;;;5012931;28;20363;-73
2021/04/18 03:27:31;;;;;;;;;;;205.10;2150.40;;;;;;5014721;28;19906;-73
2021/04/18 03:29:56;;;;;;;;;;;205.00;2150.40;;;;;;5014636;28;19906;-67
2021/04/18 03:32:22;;;;;;;;;;;205.30;2073.60;;;;;;5014220;28;20399;-72
2021/04/18 03:34:48;;;;;;;;;;;205.40;2073.60;;;;;;5014837;28;19906;-72
2021/04/18 03:37:13;;;;;;;;;;;205.40;2073.60;;;;;;5014454;28;19909;-69
2021/04/18 03:39:40;;;;;;;;;;;205.10;2099.20;;;;;;5014514;28;20356;-71
2021/04/18 03:42:05;;;;;;;;;;;205.40;2073.60;;;;;;5014242;28;20378;-71
2021/04/18 03:44:31;;;;;;;;;;;205.50;2048.00;;;;;;5014393;28;19905;-75
2021/04/18 03:46:57;;;;;;;;;;;205.40;2022.40;;;;;;5014234;28;20001;-74
2021/04/18 03:49:22;;;;;;;;;;;205.20;2073.60;;;;;;5000106;28;20288;-73
2021/04/18 03:51:48;;;;;;;;;;;180.10;2176.00;;;;;;5012562;28;19929;-74
2021/04/18 03:54:14;;;;;;;;;;;204.80;2176.00;;;;;;5014177;28;20382;-74
2021/04/18 03:56:40;;;;;;;;;;;180.10;2124.80;;;;;;5013967;28;19922;-75
2021/04/18 03:59:06;;;;;;;;;;;180.10;2201.60;;;;;;5014346;28;19906;-74
2021/04/18 04:01:31;;;;;;;;;;;180.00;2176.00;;;;;;5013885;28;19905;-74
2021/04/18 04:03:57;;;;;;;;;;;179.80;2201.60;;;;;;5014349;28;19941;-72
2021/04/18 04:06:22;;;;;;;;;;;180.10;2176.00;;;;;;5013720;28;20090;-73
2021/04/18 04:08:48;;;;;;;;;;;204.90;2124.80;;;;;;5013898;28;19905;-69
2021/04/18 04:11:14;;;;;;;;;;;180.10;2201.60;;;;;;5013946;28;19912;-72
2021/04/18 04:13:39;;;;;;;;;;;179.90;2176.00;;;;;;4998167;28;20395;-72
2021/04/18 04:16:05;;;;;;;;;;;180.00;2176.00;;;;;;5013848;28;19905;-75
2021/04/18 04:18:31;;;;;;;;;;;179.70;2227.20;;;;;;5013274;28;19971;-74
2021/04/18 04:20:56;;;;;;;;;;;179.90;2150.40;;;;;;5012417;28;19909;-76
2021/04/18 04:23:22;;;;;;;;;;;179.80;2201.60;;;;;;5011879;28;20379;-72
2021/04/18 04:25:47;;;;;;;;;;;179.70;2201.60;;;;;;5013750;28;20276;-73
2021/04/18 04:28:14;;;;;;;;;;;180.00;2201.60;;;;;;5013583;28;19992;-72
2021/04/18 04:30:40;;;;;;;;;;;179.90;2201.60;;;;;;5013492;28;19909;-73
2021/04/18 04:33:05;;;;;;;;;;;180.00;2150.40;;;;;;5013423;28;19920;-72
2021/04/18 04:35:31;;;;;;;;;;;;;;;;;;5013438;28;19968;-73
2021/04/18 04:37:58;;;;;;;;;;;179.50;2227.20;;;;;;5013380;28;20383;-73
2021/04/18 04:40:24;;;;;;;;;;;179.90;2201.60;;;;;;5013389;28;20249;-73
2021/04/18 04:42:50;;;;;;;;;;;;;;;;;;5013455;28;19948;-74
2021/04/18 04:45:16;;;;;;;;;;;;;;;;;;5013319;28;19947;-69
2021/04/18 04:47:41;;;;;;;;;;;179.30;2252.80;;;;;;4997701;28;19952;-73
2021/04/18 04:50:07;;;;;;;;;;;179.40;2252.80;;;;;;5001669;28;19949;-73
2021/04/18 04:52:33;;;;;;;;;;;179.20;2252.80;;;;;;5012842;28;20362;-71
2021/04/18 04:54:59;;;;;;;;;;;;;;;;;;5013285;28;19909;-72
2021/04/18 04:57:24;;;;;;;;;;;179.80;2227.20;;;;;;5013552;28;19987;-76
2021/04/18 04:59:50;;;;;;;;;;;179.80;2227.20;;;;;;5013114;28;19937;-77
2021/04/18 05:02:16;;;;;;;;;;;;;;;;;;5012594;28;19965;-78
2021/04/18 05:04:42;;;;;;;;;;;;;;;;;;5012959;28;20290;-78
2021/04/18 05:07:08;;;;;;;;;;;;;;;;;;5013247;28;20272;-78
2021/04/18 05:09:34;;;;;;;;;;;;;;;;;;5013183;28;20355;-73
2021/04/18 05:12:00;;;;;;;;;;;205.50;2022.40;;;;;;5013001;28;19920;-76
2021/04/18 05:14:26;;;;;;;;;;;205.40;2073.60;;;;;;5012924;28;19912;-77
2021/04/18 05:16:52;;;;;;;;;;;205.60;2048.00;;;;;;5012925;28;19906;-77
2021/04/18 05:19:18;;;;;;;;;;;205.70;2022.40;;;;;;5012885;28;19905;-71
2021/04/18 05:21:43;;;;;;;;;;;205.60;2022.40;;;;;;5012597;28;19917;-70
2021/04/18 05:24:09;;;;;;;;;;;205.50;2048.00;;;;;;5013192;28;19913;-70
2021/04/18 05:26:34;;;;;;;;;;;205.50;2022.40;;;;;;5012837;28;20261;-69
2021/04/18 05:29:00;;;;;;;;;;;205.70;2048.00;;;;;;5012995;28;20395;-69
2021/04/18 05:31:26;;;;;;;;;;;;;;;;;;5012881;28;19984;-76
2021/04/18 05:33:51;;;;;;;;;;;205.60;2099.20;;;;;;5012825;28;19917;-73
2021/04/18 05:36:17;;;;;;;;;;;205.10;2099.20;;;;;;5012623;28;19932;-71
2021/04/18 05:38:43;;;;;;;;;;;205.10;2099.20;;;;;;5012613;28;19909;-72
2021/04/18 05:41:08;;;;;;;;;;;205.20;2099.20;;;;;;5011540;28;20399;-71
2021/04/18 05:43:34;;;;;;;;;;;205.50;2099.20;;;;;;5012631;28;19970;-71
2021/04/18 05:45:59;;;;;;;;;;;205.40;2099.20;;;;;;4998972;28;19910;-72
2021/04/18 05:48:25;;;;;;;;;;;205.10;2124.80;;;;;;5004731;28;19906;-76
2021/04/18 05:50:51;;;;;;;;;;;180.10;2227.20;;;;;;5006821;28;19917;-78
2021/04/18 05:53:16;;;;;;;;;;;205.00;2201.60;;;;;;4998644;28;19921;-78
2021/04/18 05:55:42;;;;;;;;;;;205.50;2124.80;;;;;;5012722;28;19905;-78
2021/04/18 05:58:08;;;;;;;;;;;205.60;2073.60;;;;;;5012523;28;19912;-76
2021/04/18 06:00:34;;;;;;;;;;;205.40;2073.60;;;;;;5012492;28;19909;-74
2021/04/18 06:03:00;;;;;;;;;;;205.20;2124.80;;;;;;5012136;28;19967;-70
2021/04/18 06:05:25;;;;;;;;;;;205.20;2150.40;;;;;;5012434;28;19939;-70
2021/04/18 06:07:51;;;;;;;;;;;205.30;2124.80;;;;;;5012439;28;20015;-74
2021/04/18 06:10:16;;;;;;;;;;;205.60;2124.80;;;;;;4999012;28;19941;-75
2021/04/18 06:12:42;;;;;;;;;;;205.40;2124.80;;;;;;5014354;28;19909;-76
2021/04/18 06:15:08;;;;;;;;;;;;;;;;;;5016136;28;19905;-81
2021/04/18 06:17:34;;;;;;;;;;;230.60;2073.60;;;;;;5020010;28;19909;-80
2021/04/18 06:19:59;;;;;;;;;;;230.80;2048.00;;;;;;5016999;28;20008;-80
2021/04/18 06:22:25;;;;;;;;;;;230.90;2022.40;;;;;;5019609;28;20387;-82
2021/04/18 06:24:51;;;;;;;;;;;;;;;;;;5020824;28;19910;-82
2021/04/18 06:27:17;;;;;;;;;;;;;;;;;;5017561;28;19913;-83
2021/04/18 06:29:42;;;;;;;;;;;;;;;;;;5016960;28;19905;-82
2021/04/18 06:32:08;;;;;;;;;;;;;;;;;;5018350;28;20000;-83
2021/04/18 06:34:35;;;;;;;;;;;;;;;;;;5017637;28;19949;-72
2021/04/18 06:37:01;;;;;;;;;;;;;;;;;;5016810;28;19933;-83
2021/04/18 06:39:27;;;;;;;;;;;;;;;;;;5016393;28;19940;-83
2021/04/18 06:41:53;;;;;;;;;;;;;;;;;;5016561;28;19905;-82
2021/04/18 06:44:19;;;;;;;;;;;;;;;;;;5016509;28;19906;-83
2021/04/18 06:46:45;;;;;;;;;;;;;;;;;;5016888;28;20418;-83
2021/04/18 06:49:11;;;;;;;;;;;;;;;;;;5015395;28;19905;-73
2021/04/18 06:51:37;;;;;;;;;;;;;;;;;;5015022;28;19939;-74
2021/04/18 06:54:03;;;;;;;;;;;;;;;;;;5015357;28;20283;-74
2021/04/18 06:56:29;;;;;;;;;;;;;;;;;;5015090;28;20003;-74
2021/04/18 06:58:55;;;;;;;;;;;;;;;;;;5015274;28;19905;-75
2021/04/18 07:01:21;;;;;;;;;;;;;;;;;;5015033;28;19912;-75
2021/04/18 07:03:46;;;;;;;;;;;;;;;;;;5015277;28;19910;-74
2021/04/18 07:06:12;;;;;;;;;;;;;;;;;;5015022;28;19905;-74
2021/04/18 07:08:38;;;;;;;;;;;;;;;;;;5014922;28;20029;-73
2021/04/18 07:11:04;;;;;;;;;;;;;;;;;;5015166;28;20323;-74
2021/04/18 07:13:30;;;;;;;;;;;;;;;;;;5014786;28;19964;-75
2021/04/18 07:15:56;;;;;;;;;;;;;;;;;;5014314;28;20346;-70
2021/04/18 07:18:22;;;;;;;;;;;;;;;;;;5014715;28;19956;-75
2021/04/18 07:20:48;;;;;;;;;;;;;;;;;;5014615;28;19937;-74
2021/04/18 07:23:14;;;;;;;;;;;;;;;;;;5014235;28;19925;-76
2021/04/18 07:25:40;;;;;;;;;;;;;;;;;;5014435;28;19909;-73
2021/04/18 07:28:05;;;;;;;;;;;231.30;1945.60;;;;;;5014536;28;20272;-71
2021/04/18 07:30:45;;;;;;;;;;;231.30;1971.20;;;;;;5014562;28;19905;-69
2021/04/18 07:33:10;;;;;;;;;;;256.00;1971.20;;;;;;5014531;28;19922;-69
2021/04/18 07:35:41;;;;;;;;;;;256.00;1945.60;;;;;;5014348;28;19913;-69
2021/04/18 07:38:07;;;;;;;;;;;;;;;;;;5029431;28;19963;-80
2021/04/18 07:40:32;;;;;;;;;;;256.20;1945.60;;;;;;5014434;28;19937;-76
2021/04/18 07:42:58;;;;;;;;;;;256.30;1920.00;;;;;;5014393;28;19937;-72
2021/04/18 07:45:23;;;;;;;;;;;256.30;1920.00;;;;;;5014239;28;19909;-75
2021/04/18 07:47:49;;;;;;;;;;;256.10;1971.20;;;;;;5011571;28;20380;-77
2021/04/18 07:50:19;;;;;;;;;;;256.30;1945.60;;;;;;5004184;28;20393;-77
2021/04/18 07:52:44;;;;;;;;;;;;;;;;;;5013923;28;19917;-78
2021/04/18 07:55:12;;;;;;;;;;;256.20;1945.60;;;;;;5014818;28;20009;-77
2021/04/18 07:57:37;;;;;;;;;;;256.20;1971.20;;;;;;5014606;28;19906;-77
2021/04/18 08:00:07;;;;;;;;;;;256.50;1971.20;;;;;;5014082;28;20000;-78
2021/04/18 08:02:32;;;;;;;;;;;256.40;1894.40;;;;;;5014381;28;19911;-76
2021/04/18 08:04:58;;;;;;;;;;;231.30;1971.20;;;;;;5014295;28;19996;-73
2021/04/18 08:07:24;;;;;;;;;;;231.20;2022.40;;;;;;5013992;28;20278;-78
2021/04/18 08:09:53;;;;;;;;;;;;;;;;;;5013940;28;19909;-72
2021/04/18 08:12:19;;;;;;;;;;;;;;;;;;5014032;28;20398;-75
2021/04/18 08:14:44;;;;;;;;;;;;;;;;;;5013026;28;20040;-75
2021/04/18 08:17:17;;;;;;;;;;;256.90;1894.40;;;;;;5013293;28;19906;-72
2021/04/18 08:19:59;;;;;;;;;;;256.80;1920.00;;;;;;5013126;28;19906;-73
2021/04/18 08:22:25;;;;;;;;;;;256.90;1894.40;;;;;;5011218;28;19913;-70
2021/04/18 08:25:07;;;;;;;;;;;281.80;1894.40;;;;;;5013039;28;19909;-72
2021/04/18 08:27:53;;;;;;;;;;;281.80;1920.00;;;;;;5012498;28;19911;-69
2021/04/18 08:30:18;;;;;;;;;;;281.90;1894.40;;;;;;5012617;28;20059;-70
2021/04/18 08:32:48;;;;;;;;;;;281.90;1894.40;;;;;;5013246;28;20008;-72
2021/04/18 08:35:15;;;;;;;;;;;256.90;1920.00;;;;;;5012799;28;19917;-76
2021/04/18 08:37:41;;;;;;;;;;;281.60;1894.40;;;;;;5013252;28;19909;-77
2021/04/18 08:40:07;;;;;;;;;;;281.60;1945.60;;;;;;5011922;28;19912;-75
2021/04/18 08:42:33;;;;;;;;;;;282.10;1868.80;;;;;;5013218;28;19905;-74
2021/04/18 08:44:59;;;;;;;;;;;281.70;1920.00;;;;;;5013367;28;19928;-73
2021/04/18 08:47:28;;;;;;;;;;;281.60;1920.00;;;;;;5013036;28;19909;-76
2021/04/18 08:49:56;;;;;;;;;;;;;;;;;;5000112;28;19909;-76
2021/04/18 08:52:26;;;;;;;;;;;281.60;1920.00;;;;;;5012498;28;20287;-76
2021/04/18 08:54:52;;;;;;;;;;;256.80;1920.00;;;;;;5012837;28;19909;-78
2021/04/18 08:57:25;;;;;;;;;;;281.80;1971.20;;;;;;5012902;28;19968;-77
2021/04/18 08:59:56;;;;;;;;;;;281.60;1894.40;;;;;;5012411;28;19911;-75
2021/04/18 09:02:22;;;;;;;;;;;256.80;1894.40;;;;;;5012491;28;20387;-76
2021/04/18 09:04:50;;;;;;;;;;;256.80;1894.40;;;;;;5011355;28;20430;-72
2021/04/18 09:07:20;;;;;;;;;;;256.90;1920.00;;;;;;5012242;28;19909;-72
2021/04/18 09:09:46;;;;;;;;;;;281.90;1843.20;;;;;;5012054;28;19952;-76
2021/04/18 09:12:12;;;;;;;;;;;;;;;;;;5012650;28;19921;-77
2021/04/18 09:14:43;;;;;;;;;;;282.00;1868.80;;;;;;5037599;22;19936;-75
2021/04/18 09:17:09;;;;;;;;;;;;;;;;;;5036207;28;20260;-75
2021/04/18 09:19:35;;;;;;;;;;;;;;;;;;5042522;28;19919;-69
2021/04/18 09:22:06;;;;;;;;;;;;;;;;;;5047292;28;19905;-71
2021/04/18 09:24:31;;;;;;;;;;;;;;;;;;5036842;28;19952;-72
2021/04/18 09:26:57;;;;;;;;;;;;;;;;;;5038836;28;19948;-73
2021/04/18 09:29:23;;;;;;;;;;;307.60;1715.20;;;;;;5036107;28;19905;-77
2021/04/18 09:31:56;;;;;;;;;;;307.50;1715.20;;;;;;5048597;28;19909;-73
2021/04/18 09:34:22;;;;;;;;;;;332.80;1740.80;;;;;;5041779;28;19916;-75
2021/04/18 09:36:48;;;;;;;;;;;;;;;;;;5066811;28;19911;-71
2021/04/18 09:39:13;;;;;;;;;;;;;;;;;;5059054;28;19940;-70
2021/04/18 09:41:40;;;;;;;;;;;333.40;1612.80;;;;;;5068773;28;20250;-73
2021/04/18 09:44:06;;;;;;;;;;;333.40;1638.40;;;;;;5066673;28;19912;-73
2021/04/18 09:46:42;;;;;;;;;;;333.40;1689.60;;;;;;5058020;28;19936;-73
2021/04/18 09:49:08;;;;;;;;;;;;;;;;;;5055103;28;19908;-73
2021/04/18 09:51:34;;;;;;;;;;;;;;;;;;5067645;28;19923;-75
2021/04/18 09:53:59;;;;;;;;;;;;;;;;;;5072557;28;19913;-72
2021/04/18 09:56:25;;;;;;;;;;;384.90;1408.00;;;;;;5065140;28;19913;-71
2021/04/18 09:58:51;;;;;;;;;;;409.90;1459.20;;;;;;5037622;28;19905;-71
2021/04/18 10:01:29;;;;;;;;;;;435.20;1331.20;;;;;;5066594;28;19916;-72
2021/04/18 10:03:55;;;;;;;;;;;410.30;1356.80;;;;;;5072351;28;19916;-75
2021/04/18 10:06:22;;;;;;;;;;;409.70;1408.00;;;;;;5070719;28;19904;-68
2021/04/18 10:08:52;;;;;;;;;;;384.60;1356.80;;;;;;5073840;28;19905;-76
2021/04/18 10:11:18;;;;;;;;;;;384.10;1433.60;;;;;;5048052;28;19915;-76
2021/04/18 10:13:45;;;;;;;;;;;;;;;;;;5069823;28;19952;-69
2021/04/18 10:16:11;;;;;;;;;;;;;;;;;;5072868;28;19916;-69
2021/04/18 10:18:37;;;;;;;;;;;;;;;;;;5050726;28;19911;-75
2021/04/18 10:21:03;;;;;;;;;;;;;;;;;;5055498;28;19909;-75
2021/04/18 10:23:29;;;;;;;;;;;;;;;;;;5055322;28;20307;-76
2021/04/18 10:25:55;;;;;;;;;;;384.70;1382.40;;;;;;5055171;28;19909;-74
2021/04/18 10:28:21;;;;;;;;;;;;;;;;;;5055133;28;19911;-76
2021/04/18 10:30:47;;;;;;;;;;;;;;;;;;5055289;28;19957;-75
2021/04/18 10:33:13;;;;;;;;;;;384.50;1356.80;;;;;;5053842;28;19975;-72
2021/04/18 10:35:39;;;;;;;;;;;359.30;1408.00;;;;;;5055066;28;20274;-74
2021/04/18 10:38:05;;;;;;;;;;;;;;;;;;5036691;28;19915;-74
2021/04/18 10:40:31;;;;;;;;;;;;;;;;;;5045636;28;19932;-72
2021/04/18 10:42:57;;;;;;;;;;;;;;;;;;5054400;28;20283;-72
2021/04/18 10:45:22;;;;;;;;;;;;;;;;;;5054237;28;20051;-73
2021/04/18 10:47:48;;;;;;;;;;;;;;;;;;5033753;28;19971;-67
2021/04/18 10:50:15;;;;;;;;;;;;;;;;;;5073700;28;19910;-72
2021/04/18 10:52:40;;;;;;;;;;;;;;;;;;5070303;28;20033;-72
2021/04/18 10:55:08;;;;;;;;;;;;;;;;;;5054026;28;19939;-72
2021/04/18 10:57:34;;;;;;;;;;;;;;;;;;5028402;28;19912;-72
2021/04/18 10:59:59;;;;;;;;;;;333.70;1510.40;;;;;;5052424;28;20335;-72
2021/04/18 11:02:25;;;;;;;;;;;358.60;1484.80;;;;;;5068218;28;20338;-69
2021/04/18 11:04:51;;;;;;;;;;;358.70;1536.00;;;;;;5055712;28;19904;-73
2021/04/18 11:07:16;;;;;;;;;;;358.70;1536.00;;;;;;5066766;28;20258;-73
2021/04/18 11:09:42;;;;;;;;;;;;;;;;;;5072665;28;19904;-72
2021/04/18 11:12:08;;;;;;;;;;;;;;;;;;5066530;28;19912;-74
2021/04/18 11:14:34;;;;;;;;;;;;;;;;;;5053486;28;19921;-73
2021/04/18 11:17:00;;;;;;;;;;;;;;;;;;5055818;28;19958;-72
2021/04/18 11:19:26;;;;;;;;;;;;;;;;;;5073068;28;19981;-73
2021/04/18 11:21:52;;;;;;;;;;;;;;;;;;5067624;28;19997;-72
2021/04/18 11:24:17;;;;;;;;;;;358.60;1510.40;;;;;;5053853;28;19911;-74
2021/04/18 11:26:43;;;;;;;;;;;358.60;1536.00;;;;;;5054374;28;19905;-72
2021/04/18 11:29:09;;;;;;;;;;;358.60;1536.00;;;;;;5054994;28;19911;-75
2021/04/18 11:31:35;;;;;;;;;;;358.50;1561.60;;;;;;5070745;28;20355;-72
2021/04/18 11:34:01;;;;;;;;;;;;;;;;;;5067602;28;19916;-73
2021/04/18 11:36:26;;;;;;;;;;;;;;;;;;5062090;28;19904;-73
2021/04/18 11:38:53;;;;;;;;;;;;;;;;;;5035758;28;20007;-72
2021/04/18 11:41:18;;;;;;;;;;;;;;;;;;5070979;28;19926;-73
2021/04/18 11:43:44;;;;;;;;;;;;;;;;;;5044540;28;19905;-75
2021/04/18 11:46:10;;;;;;;;;;;;;;;;;;5053441;28;19951;-75
2021/04/18 11:48:37;;;;;;;;;;;;;;;;;;5053098;28;19909;-75
2021/04/18 11:51:03;;;;;;;;;;;;;;;;;;5066958;28;19966;-74
2021/04/18 11:53:29;;;;;;;;;;;;;;;;;;5047315;28;19921;-74
2021/04/18 11:55:55;;;;;;;;;;;;;;;;;;5069825;28;19990;-70
2021/04/18 11:58:21;;;;;;;;;;;;;;;;;;5061598;28;19913;-72
2021/04/18 12:00:47;;;;;;;;;;;;;;;;;;5069691;28;20372;-73
2021/04/18 12:03:17;;;;;;;;;;;;;;;;;;5064770;28;19905;-74
2021/04/18 12:05:43;;;;;;;;;;;;;;;;;;5058673;28;20011;-74
2021/04/18 12:08:10;;;;;;;;;;;;;;;;;;5057086;28;19915;-71
2021/04/18 12:10:36;;;;;;;;;;;;;;;;;;5066091;28;19908;-71
2021/04/18 12:13:02;;;;;;;;;;;;;;;;;;5057905;28;19967;-70
2021/04/18 12:15:28;;;;;;;;;;;;;;;;;;5063159;28;19927;-72
2021/04/18 12:17:54;;;;;;;;;;;;;;;;;;5060046;28;19915;-71
2021/04/18 12:20:20;;;;;;;;;;;;;;;;;;5052440;28;19905;-73
2021/04/18 12:22:46;;;;;;;;;;;;;;;;;;5052892;28;19909;-72
2021/04/18 12:25:12;;;;;;;;;;;;;;;;;;5052495;28;19909;-71
2021/04/18 12:27:38;;;;;;;;;;;;;;;;;;5052775;28;20374;-73
2021/04/18 12:30:03;;;;;;;;;;;;;;;;;;5053132;28;19904;-71
2021/04/18 12:32:29;;;;;;;;;;;;;;;;;;5052434;28;19920;-74
2021/04/18 12:34:55;;;;;;;;;;;;;;;;;;5052704;28;19909;-73
2021/04/18 12:37:21;;;;;;;;;;;;;;;;;;5052425;28;20037;-72
2021/04/18 12:39:47;;;;;;;;;;;;;;;;;;5052554;28;19951;-73
2021/04/18 12:42:13;;;;;;;;;;;;;;;;;;5052694;28;19913;-72
2021/04/18 12:44:39;;;;;;;;;;;;;;;;;;5019235;28;20367;-72
2021/04/18 12:47:06;;;;;;;;;;;359.30;1433.60;;;;;;5047607;28;20337;-74
2021/04/18 12:49:32;;;;;;;;;;;359.20;1408.00;;;;;;5055505;28;19912;-73
2021/04/18 12:51:58;;;;;;;;;;;384.00;1433.60;;;;;;5072346;28;19904;-72
2021/04/18 12:54:25;;;;;;;;;;;384.30;1408.00;;;;;;5072393;28;19904;-72
2021/04/18 12:56:50;;;;;;;;;;;384.50;1382.40;;;;;;5072228;28;19905;-75
2021/04/18 12:59:16;;;;;;;;;;;384.20;1408.00;;;;;;5053786;28;20002;-69
2021/04/18 13:01:41;;;;;;;;;;;384.20;1408.00;;;;;;5069341;28;19908;-73
2021/04/18 13:04:07;;;;;;;;;;;359.00;1433.60;;;;;;5045214;28;20412;-73
2021/04/18 13:06:33;;;;;;;;;;;359.00;1459.20;;;;;;5072244;28;19991;-74
2021/04/18 13:08:59;;;;;;;;;;;;;;;;;;5054309;28;19905;-72
2021/04/18 13:11:24;;;;;;;;;;;;;;;;;;5071956;28;20050;-74
2021/04/18 13:13:50;;;;;;;;;;;;;;;;;;5071908;28;19920;-75
2021/04/18 13:16:16;;;;;;;;;;;;;;;;;;5072739;28;19908;-73
2021/04/18 13:18:42;;;;;;;;;;;;;;;;;;5072215;28;19927;-71
2021/04/18 13:21:10;;;;;;;;;;;;;;;;;;5072306;28;20251;-75
2021/04/18 13:23:36;;;;;;;;;;;;;;;;;;5075481;28;20343;-74
2021/04/18 13:26:02;;;;;;;;;;;;;;;;;;5076148;28;19950;-72
2021/04/18 13:28:28;;;;;;;;;;;;;;;;;;5076054;28;19904;-72
2021/04/18 13:30:54;;;;;;;;;;;;;;;;;;5076119;28;19954;-73
2021/04/18 13:33:20;;;;;;;;;;;;;;;;;;5073400;28;19912;-73
2021/04/18 13:35:46;;;;;;;;;;;;;;;;;;5076040;28;19915;-72
2021/04/18 13:38:11;;;;;;;;;;;;;;;;;;5072948;28;20003;-70
2021/04/18 13:40:40;;;;;;;;;;;;;;;;;;5055901;28;20561;-71
2021/04/18 13:43:07;;;;;;;;;;;359.10;1382.40;;;;;;5056158;28;19963;-73
2021/04/18 13:45:32;;;;;;;;;;;359.10;1638.40;;;;;;5068826;28;20003;-72
2021/04/18 13:47:58;;;;;;;;;;;359.10;1433.60;;;;;;5055413;28;19905;-71
2021/04/18 13:50:23;;;;;;;;;;;358.90;1408.00;;;;;;5065726;28;19905;-68
2021/04/18 13:52:49;;;;;;;;;;;359.00;1433.60;;;;;;5072943;28;20380;-68
2021/04/18 13:55:15;;;;;;;;;;;359.00;1408.00;;;;;;5066999;28;19916;-66
2021/04/18 13:57:41;;;;;;;;;;;359.10;1433.60;;;;;;5055346;28;19905;-68
2021/04/18 14:00:08;;;;;;;;;;;359.10;1408.00;;;;;;5055264;28;20258;-67
2021/04/18 14:02:33;;;;;;;;;;;359.30;1408.00;;;;;;5055131;28;20416;-69
2021/04/18 14:04:59;;;;;;;;;;;384.00;1382.40;;;;;;5055472;28;19967;-67
2021/04/18 14:07:25;;;;;;;;;;;;;;;;;;5055116;28;19916;-70
2021/04/18 14:09:51;;;;;;;;;;;;;;;;;;5059729;28;19916;-68
2021/04/18 14:12:17;;;;;;;;;;;;;;;;;;5072406;28;20277;-73
2021/04/18 14:14:43;;;;;;;;;;;;;;;;;;5061113;28;20428;-67
2021/04/18 14:17:09;;;;;;;;;;;;;;;;;;5048281;28;19909;-69
2021/04/18 14:19:35;;;;;;;;;;;;;;;;;;5054556;28;19974;-71
2021/04/18 14:22:01;;;;;;;;;;;;;;;;;;5054667;28;19905;-74
2021/04/18 14:24:27;;;;;;;;;;;;;;;;;;5054748;28;19904;-71
2021/04/18 14:26:53;;;;;;;;;;;;;;;;;;5054594;28;20236;-74
2021/04/18 14:29:18;;;;;;;;;;;;;;;;;;5054463;28;19911;-72
2021/04/18 14:31:44;;;;;;;;;;;;;;;;;;5054455;28;19905;-73
2021/04/18 14:34:10;;;;;;;;;;;;;;;;;;5046034;28;19917;-75